Terminal Aerodrome Forecast
Issued by NWS Northern Indiana

Home | Current Version | Previous Version | Text Only | Print | Product List | Glossary Off
Versions: 1 2 3 4 5 6 7 8 9 10 11 12 13 14 15 16 17 18 19

000
FTUS43 KIWX 052339
TAFFWA
TAF
KFWA 052339Z 0600/0624 10005KT P6SM SCT010 BKN250
     FM060700 08005KT 4SM BR SCT100 BKN250
      TEMPO 0609/0612 2SM BR
     FM061500 08010KT 4SM -RA BR SCT008 OVC015
     FM061900 28010KT 2SM BR VCSH OVC006=

USA.gov is the U.S. government's official web portal to all federal, state and local government web resources and services.